sensor_id;sensor_type;location;lat;lon;timestamp;P1;durP1;ratioP1;P2;durP2;ratioP2
35909;SDS011;22004;49.120;-0.200;2022-09-03T06:57:40;28.63;;;20.35;;
35909;SDS011;22004;49.120;-0.200;2022-09-03T07:00:05;23.60;;;17.58;;
35909;SDS011;22004;49.120;-0.200;2022-09-03T07:02:31;19.67;;;15.30;;
35909;SDS011;22004;49.120;-0.200;2022-09-03T07:04:57;25.63;;;18.38;;
35909;SDS011;22004;49.120;-0.200;2022-09-03T07:07:22;21.58;;;16.33;;
35909;SDS011;22004;49.120;-0.200;2022-09-03T07:09:48;24.02;;;17.77;;
35909;SDS011;22004;49.120;-0.200;2022-09-03T07:12:13;18.05;;;13.40;;
35909;SDS011;22004;49.120;-0.200;2022-09-03T07:14:40;18.05;;;14.13;;
35909;SDS011;22004;49.120;-0.200;2022-09-03T07:17:06;17.42;;;13.80;;
35909;SDS011;22004;49.120;-0.200;2022-09-03T07:19:31;17.33;;;12.82;;
35909;SDS011;22004;49.120;-0.200;2022-09-03T07:21:57;24.33;;;18.55;;
35909;SDS011;22004;49.120;-0.200;2022-09-03T07:24:22;20.80;;;15.65;;
35909;SDS011;22004;49.120;-0.200;2022-09-03T07:26:48;20.95;;;16.45;;
35909;SDS011;22004;49.120;-0.200;2022-09-03T07:29:13;19.60;;;14.18;;
35909;SDS011;22004;49.120;-0.200;2022-09-03T07:31:40;21.73;;;16.48;;
35909;SDS011;22004;49.120;-0.200;2022-09-03T07:34:08;19.58;;;14.73;;
35909;SDS011;22004;49.120;-0.200;2022-09-03T07:36:36;22.73;;;15.10;;
35909;SDS011;22004;49.120;-0.200;2022-09-03T07:39:03;32.45;;;24.23;;
35909;SDS011;22004;49.120;-0.200;2022-09-03T07:41:28;34.58;;;21.70;;
35909;SDS011;22004;49.120;-0.200;2022-09-03T07:43:56;17.67;;;13.38;;
35909;SDS011;22004;49.120;-0.200;2022-09-03T07:46:23;36.28;;;24.13;;
35909;SDS011;22004;49.120;-0.200;2022-09-03T07:48:50;41.10;;;27.92;;
35909;SDS011;22004;49.120;-0.200;2022-09-03T07:51:17;38.88;;;27.55;;
35909;SDS011;22004;49.120;-0.200;2022-09-03T07:53:51;27.33;;;20.00;;
35909;SDS011;22004;49.120;-0.200;2022-09-03T07:56:17;38.53;;;27.50;;
35909;SDS011;22004;49.120;-0.200;2022-09-03T07:58:42;36.08;;;24.77;;
35909;SDS011;22004;49.120;-0.200;2022-09-03T08:01:09;38.92;;;27.08;;
35909;SDS011;22004;49.120;-0.200;2022-09-03T08:03:36;42.33;;;27.92;;
35909;SDS011;22004;49.120;-0.200;2022-09-03T08:06:03;37.30;;;24.35;;
35909;SDS011;22004;49.120;-0.200;2022-09-03T08:08:30;39.80;;;27.13;;
35909;SDS011;22004;49.120;-0.200;2022-09-03T08:11:06;40.97;;;28.65;;
35909;SDS011;22004;49.120;-0.200;2022-09-03T08:13:45;33.67;;;22.00;;
35909;SDS011;22004;49.120;-0.200;2022-09-03T08:16:31;31.23;;;21.23;;
35909;SDS011;22004;49.120;-0.200;2022-09-03T08:18:58;32.45;;;23.85;;
35909;SDS011;22004;49.120;-0.200;2022-09-03T08:21:25;42.53;;;27.27;;
35909;SDS011;22004;49.120;-0.200;2022-09-03T08:23:52;33.15;;;24.65;;
35909;SDS011;22004;49.120;-0.200;2022-09-03T08:26:20;33.38;;;23.67;;
35909;SDS011;22004;49.120;-0.200;2022-09-03T08:28:46;32.17;;;23.00;;
35909;SDS011;22004;49.120;-0.200;2022-09-03T08:31:13;35.92;;;25.08;;
35909;SDS011;22004;49.120;-0.200;2022-09-03T08:33:42;35.88;;;24.80;;
35909;SDS011;22004;49.120;-0.200;2022-09-03T08:36:11;33.40;;;22.65;;
35909;SDS011;22004;49.120;-0.200;2022-09-03T08:38:38;26.55;;;19.85;;
35909;SDS011;22004;49.120;-0.200;2022-09-03T08:46:40;24.80;;;17.33;;
35909;SDS011;22004;49.120;-0.200;2022-09-03T08:51:59;18.37;;;12.97;;
35909;SDS011;22004;49.120;-0.200;2022-09-03T08:54:28;21.73;;;12.52;;
35909;SDS011;22004;49.120;-0.200;2022-09-03T08:56:57;18.08;;;12.60;;
35909;SDS011;22004;49.120;-0.200;2022-09-03T08:59:26;17.08;;;12.35;;
35909;SDS011;22004;49.120;-0.200;2022-09-03T09:05:00;14.90;;;10.52;;
35909;SDS011;22004;49.120;-0.200;2022-09-03T09:14:02;12.20;;;7.93;;
35909;SDS011;22004;49.120;-0.200;2022-09-03T09:16:37;11.90;;;7.38;;
35909;SDS011;22004;49.120;-0.200;2022-09-03T09:19:30;12.07;;;9.00;;
35909;SDS011;22004;49.120;-0.200;2022-09-03T09:22:06;11.23;;;8.18;;
35909;SDS011;22004;49.120;-0.200;2022-09-03T09:24:44;15.52;;;8.63;;
35909;SDS011;22004;49.120;-0.200;2022-09-03T09:27:12;11.68;;;9.20;;
35909;SDS011;22004;49.120;-0.200;2022-09-03T09:29:41;14.88;;;8.45;;
35909;SDS011;22004;49.120;-0.200;2022-09-03T09:32:10;13.23;;;9.05;;
35909;SDS011;22004;49.120;-0.200;2022-09-03T09:34:38;11.68;;;7.57;;
35909;SDS011;22004;49.120;-0.200;2022-09-03T09:37:06;10.77;;;7.72;;
35909;SDS011;22004;49.120;-0.200;2022-09-03T09:39:34;10.65;;;7.88;;
35909;SDS011;22004;49.120;-0.200;2022-09-03T09:42:00;14.52;;;8.20;;
35909;SDS011;22004;49.120;-0.200;2022-09-03T09:44:36;11.18;;;8.25;;
35909;SDS011;22004;49.120;-0.200;2022-09-03T09:47:07;13.70;;;9.02;;
35909;SDS011;22004;49.120;-0.200;2022-09-03T09:49:51;14.23;;;8.38;;
35909;SDS011;22004;49.120;-0.200;2022-09-03T09:52:18;11.73;;;8.70;;
35909;SDS011;22004;49.120;-0.200;2022-09-03T09:54:49;14.85;;;9.05;;
35909;SDS011;22004;49.120;-0.200;2022-09-03T09:57:16;15.20;;;9.10;;
35909;SDS011;22004;49.120;-0.200;2022-09-03T09:59:46;14.77;;;9.00;;
35909;SDS011;22004;49.120;-0.200;2022-09-03T10:02:14;12.52;;;9.50;;
35909;SDS011;22004;49.120;-0.200;2022-09-03T10:04:44;13.27;;;9.30;;
35909;SDS011;22004;49.120;-0.200;2022-09-03T10:07:28;11.57;;;8.13;;
35909;SDS011;22004;49.120;-0.200;2022-09-03T10:12:31;8.32;;;5.78;;
35909;SDS011;22004;49.120;-0.200;2022-09-03T10:15:02;8.15;;;6.95;;
35909;SDS011;22004;49.120;-0.200;2022-09-03T10:23:09;10.75;;;6.90;;
35909;SDS011;22004;49.120;-0.200;2022-09-03T10:28:31;9.75;;;7.22;;
35909;SDS011;22004;49.120;-0.200;2022-09-03T10:31:06;6.60;;;4.45;;
35909;SDS011;22004;49.120;-0.200;2022-09-03T10:33:41;9.57;;;4.35;;
35909;SDS011;22004;49.120;-0.200;2022-09-03T10:36:18;6.60;;;4.38;;
35909;SDS011;22004;49.120;-0.200;2022-09-03T10:39:03;7.32;;;5.20;;
35909;SDS011;22004;49.120;-0.200;2022-09-03T10:49:44;8.98;;;5.82;;
35909;SDS011;22004;49.120;-0.200;2022-09-03T11:04:19;9.80;;;6.35;;
35909;SDS011;22004;49.120;-0.200;2022-09-03T11:06:46;11.15;;;6.18;;
35909;SDS011;22004;49.120;-0.200;2022-09-03T11:09:22;10.20;;;4.60;;
35909;SDS011;22004;49.120;-0.200;2022-09-03T11:11:54;9.30;;;6.00;;
35909;SDS011;22004;49.120;-0.200;2022-09-03T11:14:27;9.23;;;5.13;;
35909;SDS011;22004;49.120;-0.200;2022-09-03T11:17:02;6.88;;;4.80;;
35909;SDS011;22004;49.120;-0.200;2022-09-03T11:19:53;7.97;;;5.53;;
35909;SDS011;22004;49.120;-0.200;2022-09-03T11:22:23;9.80;;;5.50;;
35909;SDS011;22004;49.120;-0.200;2022-09-03T11:24:52;5.60;;;4.68;;
35909;SDS011;22004;49.120;-0.200;2022-09-03T11:27:30;10.50;;;5.90;;
35909;SDS011;22004;49.120;-0.200;2022-09-03T11:30:05;10.95;;;5.05;;
35909;SDS011;22004;49.120;-0.200;2022-09-03T11:32:50;4.78;;;4.07;;
35909;SDS011;22004;49.120;-0.200;2022-09-03T11:35:36;7.03;;;4.57;;
35909;SDS011;22004;49.120;-0.200;2022-09-03T11:43:25;4.63;;;3.60;;
35909;SDS011;22004;49.120;-0.200;2022-09-03T11:46:08;4.38;;;3.30;;
35909;SDS011;22004;49.120;-0.200;2022-09-03T11:48:47;3.88;;;3.53;;
35909;SDS011;22004;49.120;-0.200;2022-09-03T11:56:30;3.28;;;2.92;;
35909;SDS011;22004;49.120;-0.200;2022-09-03T11:59:14;2.58;;;2.30;;
35909;SDS011;22004;49.120;-0.200;2022-09-03T12:04:15;3.53;;;2.90;;
35909;SDS011;22004;49.120;-0.200;2022-09-03T12:06:46;3.60;;;3.20;;
35909;SDS011;22004;49.120;-0.200;2022-09-03T12:12:11;3.80;;;2.67;;
35909;SDS011;22004;49.120;-0.200;2022-09-03T12:22:20;3.85;;;2.85;;
35909;SDS011;22004;49.120;-0.200;2022-09-03T12:24:47;3.75;;;2.90;;
35909;SDS011;22004;49.120;-0.200;2022-09-03T12:27:18;7.40;;;2.38;;
35909;SDS011;22004;49.120;-0.200;2022-09-03T12:32:46;4.70;;;2.20;;
35909;SDS011;22004;49.120;-0.200;2022-09-03T12:35:18;5.25;;;2.28;;
35909;SDS011;22004;49.120;-0.200;2022-09-03T12:37:50;3.40;;;2.13;;
35909;SDS011;22004;49.120;-0.200;2022-09-03T12:40:20;3.33;;;3.00;;
35909;SDS011;22004;49.120;-0.200;2022-09-03T12:42:48;4.60;;;3.10;;
35909;SDS011;22004;49.120;-0.200;2022-09-03T12:45:16;5.10;;;3.40;;
35909;SDS011;22004;49.120;-0.200;2022-09-03T12:47:44;3.45;;;3.15;;
35909;SDS011;22004;49.120;-0.200;2022-09-03T12:50:14;6.47;;;3.40;;
35909;SDS011;22004;49.120;-0.200;2022-09-03T12:58:07;4.18;;;3.60;;
35909;SDS011;22004;49.120;-0.200;2022-09-03T13:00:51;5.55;;;3.67;;
35909;SDS011;22004;49.120;-0.200;2022-09-03T13:03:28;5.22;;;4.25;;
35909;SDS011;22004;49.120;-0.200;2022-09-03T13:05:59;6.95;;;4.15;;
35909;SDS011;22004;49.120;-0.200;2022-09-03T13:08:30;5.63;;;3.83;;
35909;SDS011;22004;49.120;-0.200;2022-09-03T13:11:02;5.60;;;3.80;;
35909;SDS011;22004;49.120;-0.200;2022-09-03T13:13:33;4.85;;;3.88;;
35909;SDS011;22004;49.120;-0.200;2022-09-03T13:21:14;8.60;;;4.45;;
35909;SDS011;22004;49.120;-0.200;2022-09-03T13:29:20;13.73;;;8.65;;
35909;SDS011;22004;49.120;-0.200;2022-09-03T13:32:13;10.07;;;6.85;;
35909;SDS011;22004;49.120;-0.200;2022-09-03T13:34:51;11.10;;;7.95;;
35909;SDS011;22004;49.120;-0.200;2022-09-03T13:37:40;14.60;;;9.77;;
35909;SDS011;22004;49.120;-0.200;2022-09-03T13:40:11;13.43;;;9.95;;
35909;SDS011;22004;49.120;-0.200;2022-09-03T13:42:51;11.15;;;6.72;;
35909;SDS011;22004;49.120;-0.200;2022-09-03T13:48:24;18.33;;;11.73;;
35909;SDS011;22004;49.120;-0.200;2022-09-03T13:51:24;8.13;;;6.55;;
35909;SDS011;22004;49.120;-0.200;2022-09-03T13:54:02;16.17;;;8.55;;
35909;SDS011;22004;49.120;-0.200;2022-09-03T13:56:43;17.42;;;9.77;;
35909;SDS011;22004;49.120;-0.200;2022-09-03T14:02:17;14.05;;;9.20;;
35909;SDS011;22004;49.120;-0.200;2022-09-03T14:19:31;17.33;;;8.40;;
35909;SDS011;22004;49.120;-0.200;2022-09-03T14:22:08;10.73;;;8.20;;
35909;SDS011;22004;49.120;-0.200;2022-09-03T14:24:50;14.27;;;6.93;;
35909;SDS011;22004;49.120;-0.200;2022-09-03T14:27:27;10.27;;;6.32;;
35909;SDS011;22004;49.120;-0.200;2022-09-03T14:30:39;13.90;;;7.88;;
35909;SDS011;22004;49.120;-0.200;2022-09-03T14:32:58;12.57;;;7.60;;
35909;SDS011;22004;49.120;-0.200;2022-09-03T14:35:32;14.38;;;7.82;;
35909;SDS011;22004;49.120;-0.200;2022-09-03T14:59:39;12.50;;;6.30;;
35909;SDS011;22004;49.120;-0.200;2022-09-03T15:05:03;10.13;;;6.43;;
35909;SDS011;22004;49.120;-0.200;2022-09-03T15:07:57;14.23;;;6.68;;
35909;SDS011;22004;49.120;-0.200;2022-09-03T15:10:36;10.75;;;6.05;;
35909;SDS011;22004;49.120;-0.200;2022-09-03T15:13:16;9.55;;;6.72;;
35909;SDS011;22004;49.120;-0.200;2022-09-03T15:28:22;12.13;;;5.93;;
35909;SDS011;22004;49.120;-0.200;2022-09-03T15:31:01;12.27;;;6.40;;
35909;SDS011;22004;49.120;-0.200;2022-09-03T15:36:18;11.97;;;5.97;;
35909;SDS011;22004;49.120;-0.200;2022-09-03T15:38:49;9.32;;;5.78;;
35909;SDS011;22004;49.120;-0.200;2022-09-03T15:44:15;9.95;;;6.28;;
35909;SDS011;22004;49.120;-0.200;2022-09-03T15:49:15;10.95;;;6.45;;
35909;SDS011;22004;49.120;-0.200;2022-09-03T15:54:47;15.75;;;5.82;;
35909;SDS011;22004;49.120;-0.200;2022-09-03T15:57:27;12.20;;;5.75;;
35909;SDS011;22004;49.120;-0.200;2022-09-03T16:00:05;8.18;;;5.93;;
35909;SDS011;22004;49.120;-0.200;2022-09-03T16:15:18;11.15;;;5.28;;
35909;SDS011;22004;49.120;-0.200;2022-09-03T16:20:23;12.63;;;5.85;;
35909;SDS011;22004;49.120;-0.200;2022-09-03T16:25:30;9.18;;;5.22;;
35909;SDS011;22004;49.120;-0.200;2022-09-03T16:28:03;8.23;;;5.28;;
35909;SDS011;22004;49.120;-0.200;2022-09-03T16:31:16;9.98;;;5.80;;
35909;SDS011;22004;49.120;-0.200;2022-09-03T16:44:07;9.90;;;5.40;;
35909;SDS011;22004;49.120;-0.200;2022-09-03T16:52:14;6.43;;;4.30;;
35909;SDS011;22004;49.120;-0.200;2022-09-03T16:54:51;15.07;;;5.07;;
35909;SDS011;22004;49.120;-0.200;2022-09-03T17:22:31;11.25;;;3.80;;
35909;SDS011;22004;49.120;-0.200;2022-09-03T17:25:03;9.93;;;3.60;;
35909;SDS011;22004;49.120;-0.200;2022-09-03T17:36:35;6.72;;;3.88;;
35909;SDS011;22004;49.120;-0.200;2022-09-03T17:41:53;14.13;;;4.05;;
35909;SDS011;22004;49.120;-0.200;2022-09-03T17:49:50;7.82;;;4.43;;
35909;SDS011;22004;49.120;-0.200;2022-09-03T17:52:23;5.78;;;3.55;;
35909;SDS011;22004;49.120;-0.200;2022-09-03T17:54:54;8.95;;;3.80;;
35909;SDS011;22004;49.120;-0.200;2022-09-03T18:00:03;7.50;;;3.83;;
35909;SDS011;22004;49.120;-0.200;2022-09-03T18:05:31;7.15;;;3.70;;
35909;SDS011;22004;49.120;-0.200;2022-09-03T18:10:55;11.68;;;4.18;;
35909;SDS011;22004;49.120;-0.200;2022-09-03T18:16:10;11.20;;;3.65;;
35909;SDS011;22004;49.120;-0.200;2022-09-03T18:18:43;8.05;;;4.10;;
35909;SDS011;22004;49.120;-0.200;2022-09-03T18:21:13;10.50;;;4.82;;
35909;SDS011;22004;49.120;-0.200;2022-09-03T18:27:08;11.48;;;4.38;;
35909;SDS011;22004;49.120;-0.200;2022-09-03T18:30:03;9.73;;;3.88;;
35909;SDS011;22004;49.120;-0.200;2022-09-03T18:32:51;14.07;;;4.28;;
35909;SDS011;22004;49.120;-0.200;2022-09-03T18:35:35;7.20;;;3.63;;
35909;SDS011;22004;49.120;-0.200;2022-09-03T18:38:23;8.07;;;3.80;;
35909;SDS011;22004;49.120;-0.200;2022-09-03T18:53:25;9.88;;;3.55;;
35909;SDS011;22004;49.120;-0.200;2022-09-03T18:59:29;9.43;;;4.50;;
35909;SDS011;22004;49.120;-0.200;2022-09-03T19:09:10;11.73;;;3.58;;
35909;SDS011;22004;49.120;-0.200;2022-09-03T19:20:33;6.53;;;4.25;;
35909;SDS011;22004;49.120;-0.200;2022-09-03T19:23:19;5.95;;;4.38;;
35909;SDS011;22004;49.120;-0.200;2022-09-03T19:26:49;6.47;;;4.22;;
35909;SDS011;22004;49.120;-0.200;2022-09-03T19:29:58;5.43;;;4.13;;
35909;SDS011;22004;49.120;-0.200;2022-09-03T19:32:43;5.72;;;4.10;;
35909;SDS011;22004;49.120;-0.200;2022-09-03T19:51:57;10.15;;;4.60;;
35909;SDS011;22004;49.120;-0.200;2022-09-03T19:54:43;9.18;;;4.45;;
35909;SDS011;22004;49.120;-0.200;2022-09-03T19:57:28;6.68;;;4.03;;
35909;SDS011;22004;49.120;-0.200;2022-09-03T20:00:14;11.70;;;5.15;;
35909;SDS011;22004;49.120;-0.200;2022-09-03T20:02:58;7.28;;;4.43;;
35909;SDS011;22004;49.120;-0.200;2022-09-03T20:05:44;7.80;;;4.88;;
35909;SDS011;22004;49.120;-0.200;2022-09-03T20:08:28;7.65;;;4.40;;
35909;SDS011;22004;49.120;-0.200;2022-09-03T20:11:17;8.65;;;4.40;;
35909;SDS011;22004;49.120;-0.200;2022-09-03T20:13:47;9.00;;;4.78;;
35909;SDS011;22004;49.120;-0.200;2022-09-03T20:16:34;11.52;;;4.32;;
35909;SDS011;22004;49.120;-0.200;2022-09-03T20:21:45;8.57;;;4.68;;
35909;SDS011;22004;49.120;-0.200;2022-09-03T20:40:33;6.43;;;4.28;;
35909;SDS011;22004;49.120;-0.200;2022-09-03T20:49:23;10.50;;;4.20;;
35909;SDS011;22004;49.120;-0.200;2022-09-03T20:52:18;6.63;;;4.05;;
35909;SDS011;22004;49.120;-0.200;2022-09-03T21:08:39;7.45;;;4.30;;
35909;SDS011;22004;49.120;-0.200;2022-09-03T21:11:27;7.60;;;4.17;;
35909;SDS011;22004;49.120;-0.200;2022-09-03T21:19:47;5.40;;;3.55;;
35909;SDS011;22004;49.120;-0.200;2022-09-03T21:25:37;8.07;;;4.10;;
35909;SDS011;22004;49.120;-0.200;2022-09-03T21:28:11;6.55;;;3.30;;
35909;SDS011;22004;49.120;-0.200;2022-09-03T21:30:55;7.35;;;3.67;;
35909;SDS011;22004;49.120;-0.200;2022-09-03T21:33:28;7.22;;;4.03;;
35909;SDS011;22004;49.120;-0.200;2022-09-03T21:36:05;6.05;;;3.70;;
35909;SDS011;22004;49.120;-0.200;2022-09-03T21:38:35;7.85;;;3.20;;
35909;SDS011;22004;49.120;-0.200;2022-09-03T21:46:26;9.38;;;4.07;;
35909;SDS011;22004;49.120;-0.200;2022-09-03T21:48:59;5.78;;;3.83;;
35909;SDS011;22004;49.120;-0.200;2022-09-03T21:51:32;5.80;;;3.72;;
35909;SDS011;22004;49.120;-0.200;2022-09-03T21:54:05;5.40;;;3.65;;
35909;SDS011;22004;49.120;-0.200;2022-09-03T22:02:21;6.95;;;3.88;;
35909;SDS011;22004;49.120;-0.200;2022-09-03T22:04:48;7.28;;;3.90;;
35909;SDS011;22004;49.120;-0.200;2022-09-03T22:07:21;6.28;;;3.58;;
35909;SDS011;22004;49.120;-0.200;2022-09-03T22:15:19;7.13;;;3.50;;
35909;SDS011;22004;49.120;-0.200;2022-09-03T22:18:03;11.25;;;3.72;;
35909;SDS011;22004;49.120;-0.200;2022-09-03T22:20:39;6.72;;;3.63;;
35909;SDS011;22004;49.120;-0.200;2022-09-03T22:23:17;8.25;;;3.50;;
35909;SDS011;22004;49.120;-0.200;2022-09-03T22:44:36;5.07;;;3.47;;
35909;SDS011;22004;49.120;-0.200;2022-09-03T22:49:45;6.30;;;3.90;;
35909;SDS011;22004;49.120;-0.200;2022-09-03T22:55:08;5.95;;;3.60;;
35909;SDS011;22004;49.120;-0.200;2022-09-03T22:57:37;6.13;;;3.58;;
35909;SDS011;22004;49.120;-0.200;2022-09-03T23:00:10;7.18;;;3.70;;
35909;SDS011;22004;49.120;-0.200;2022-09-03T23:02:36;8.05;;;4.03;;
35909;SDS011;22004;49.120;-0.200;2022-09-03T23:05:22;7.95;;;3.70;;
35909;SDS011;22004;49.120;-0.200;2022-09-03T23:08:18;4.05;;;3.38;;
35909;SDS011;22004;49.120;-0.200;2022-09-03T23:13:19;6.68;;;3.70;;
